Terminal Aerodrome Forecast
Issued by NWS Wichita, KS

Home | Current Version | Previous Version | Text Only | Print | Product List | Glossary Off
Versions: 1 2 3 4 5 6 7 8 9 10 11 12 13 14 15 16 17 18 19 20

000
FTUS43 KICT 071700
TAFICT
TAF
KICT 071734Z 0718/0818 18012KT P6SM VCSH SCT150
      TEMPO 0718/0719 -SHRA
     FM072000 20016G23KT P6SM SCT150
     FM080500 21008KT P6SM SCT100 BKN250
     FM081000 02014KT P6SM BKN100=

USA.gov is the U.S. government's official web portal to all federal, state and local government web resources and services.